Accueil
METAR-TAF:

METAR-TAF

Aéroports :

Wanaham

Lifou, Nouvelle-Calédonie

latitude: 20-46S, longitude: 167-14E, altitude: 28 m

METAR: absent

Heure: 21:55 (10:55 UTC)

Prévision

Le bulletin a été fait il y a 17 heures et 55 minutes, à 17:00 UTC
Prévision valable du 21 à 18 UTC au 22 à 18 UTC
Vent 2 kt de direction variable
Visibilité 10 km ou plus
Quelques nuages à une hauteur de 2500 ft
Nuages fragmentés à une hauteur de 24000 ft
Probabilité 30% :
Temporairement
du 21 à 18 UTC au 21 à 21 UTC
averses de pluie
Evoluant progressivement
du 21 à 22 UTC au 21 à 24 UTC
Vent 8 kt de est/sud-est

TAF: NWWL 211700Z 2118/2218 VRB02KT 9999 FEW025 BKN240 PROB30 TEMPO 2118/2121 SHRA BECMG 2122/2124 12008KT

Observations et prévisions météorologiques de plus de 4000 aéroports (messages METAR et TAF).

Les stations disponibles sont représentées par des disques jaunes et rouges sur la carte.

Passer la souris dessus pour voir le nom de la station.

Cliquer dessus pour voir les observations et prévisions météorologiques.

Pour changer de carte: cliquez sur les boutons verts avec une croix noire pour zoomer, sur le bouton vert avec un tiret pour effectuer un zoom arrière, ou sur les flèches vertes pour les cartes adjacentes.


METAR-TAF: